Alma, IL (62807)

06:45 PM CDT del 25 Marzo 2017 (GMT -0500)
Alma Park | | Change Station

Alt. 640 ft 38.72 °N, 88.91 °W | Updated 34 seconds ago

Coperto
Coperto
60.5 °F
Sembra 60.5 °F
N
2.0
Vento Variabile Vento da ESE

Oggi
Massima -- | Minima -- °F
--% Possibilità di precip.
Ieri
Massima -- | Minima -- °F
Precip. -- in
Pressione 29.86 in
Visibilità 10.0 miglia
Nuvole Nubi sparse 1800 ft
Coperto 2800 ft
Punto di rugiada 59 °F
Umidità 96%
Piovosità 0.00 in
Spessore del manto nevoso Non disponibile.
6:50 AM 7:12 PM
Luna calante, 6% visible
METAR KSLO 252335Z AUTO 16004KT 10SM SCT018 OVC028 17/15 A2986 RMK AO2 T01680145
Pressione 29.86 in
Visibilità 10.0 miglia
Nuvole Nubi sparse 1800 ft
Coperto 2800 ft
Punto di rugiada 59 °F
Umidità 96%
Piovosità 0.00 in
Spessore del manto nevoso Non disponibile.
6:50 AM 7:12 PM
Luna calante, 6% visible
METAR KSLO 252335Z AUTO 16004KT 10SM SCT018 OVC028 17/15 A2986 RMK AO2 T01680145

Get Severe Weather Alerts

Thanks for signing up!

Be on the lookout for a verification email in your inbox.

You'll start receiving the daily forecast at 8 AM.

×

10-Day Weather Forecast

Almanac

Astronomia

Mar. 25, 2017 Alba Tramonto
Ora attuale
Crepuscolo civile
Crepuscolo nautico
Crepuscolo astronomico
Luna
Estensione della luce visibile
Lunghezza del giorno
Tomorrow will be .
, % of the Moon is Illuminated

Gli estremi di oggi

State Highs State Lows

Community

WunderPhotos

Upload Photos

1,962,540 foto caricate!

WunderBlog® & News

Nearby

Qualità dell'aria

  Qualità dell'aria Indice AQ Inquinante
Not available.

Profondità neve

Stazione Profondità Altitudine

Attività sismica

Città  Distanza Mag. Data & Ora
Minimo Magnitudo Mostrato è 2.5.

Attività sismica

Città  Distanza Mag. Data & Ora
Minimo Magnitudo Mostrato è 2.5.

Temperature delle acque costiere

Località Temperatura

Stations

Stazioni meteo nelle vicinanze

Ubicazione della stazione Temp. Raffreddamento del vento Punto di rugiada Umidità Vento Precip. Alt. Aggiornato Tipo
                   

Watches & Warnings

There are currently no watches in effect.